createdAt,value
2023-04-10T00:00:20.525Z,17.65
2023-04-10T00:02:47.498Z,12.07
2023-04-10T00:05:14.173Z,12.18
2023-04-10T00:07:41.102Z,14.55
2023-04-10T00:10:07.745Z,20.33
2023-04-10T00:15:33.455Z,11.85
2023-04-10T00:17:59.942Z,14.35
2023-04-10T00:20:26.940Z,15.45
2023-04-10T00:22:53.798Z,13.95
2023-04-10T00:25:20.617Z,15.70
2023-04-10T00:27:46.993Z,15.52
2023-04-10T00:30:13.773Z,14.88
2023-04-10T00:32:40.494Z,13.43
2023-04-10T00:35:08.663Z,13.35
2023-04-10T00:37:35.651Z,17.65
2023-04-10T00:40:02.071Z,13.95
2023-04-10T00:42:28.513Z,12.25
2023-04-10T00:44:55.306Z,14.27
2023-04-10T00:47:22.263Z,13.23
2023-04-10T00:49:49.564Z,14.15
2023-04-10T00:52:16.480Z,13.98
2023-04-10T00:54:43.401Z,16.00
2023-04-10T00:57:09.848Z,11.50
2023-04-10T00:59:36.787Z,12.57
2023-04-10T01:02:04.205Z,15.45
2023-04-10T01:04:32.775Z,12.38
2023-04-10T01:07:01.876Z,12.40
2023-04-10T01:09:46.561Z,15.05
2023-04-10T01:12:37.764Z,14.70
2023-04-10T01:15:07.218Z,14.00
2023-04-10T01:17:56.104Z,12.95
2023-04-10T01:20:25.155Z,13.60
2023-04-10T01:23:09.877Z,11.93
2023-04-10T01:25:51.777Z,11.98
2023-04-10T01:28:46.097Z,15.00
2023-04-10T01:31:20.764Z,15.05
2023-04-10T01:33:51.349Z,13.20
2023-04-10T01:36:34.677Z,16.15
2023-04-10T01:39:02.245Z,15.02
2023-04-10T01:41:29.920Z,14.98
2023-04-10T01:43:58.317Z,17.55
2023-04-10T01:46:27.110Z,13.77
2023-04-10T01:48:55.619Z,14.02
2023-04-10T01:51:23.060Z,14.50
2023-04-10T01:53:51.205Z,13.73
2023-04-10T01:56:17.970Z,13.00
2023-04-10T01:58:44.481Z,11.80
2023-04-10T02:03:44.923Z,13.82
2023-04-10T02:06:18.516Z,14.18
2023-04-10T02:08:57.711Z,13.60
2023-04-10T02:11:59.167Z,11.75
2023-04-10T02:14:30.467Z,13.85
2023-04-10T02:16:57.895Z,11.75
2023-04-10T02:19:26.952Z,12.07
2023-04-10T02:21:53.994Z,14.48
2023-04-10T02:24:21.369Z,12.07
2023-04-10T02:26:49.560Z,13.77
2023-04-10T02:29:16.075Z,13.75
2023-04-10T02:31:43.126Z,12.43
2023-04-10T02:34:10.363Z,13.50
2023-04-10T02:36:40.939Z,12.82
2023-04-10T02:39:10.456Z,12.23
2023-04-10T02:41:37.197Z,13.52
2023-04-10T02:44:03.739Z,11.43
2023-04-10T02:46:30.206Z,12.75
2023-04-10T02:48:56.752Z,12.07
2023-04-10T02:51:23.133Z,13.90
2023-04-10T02:53:50.015Z,11.98
2023-04-10T02:56:16.462Z,11.45
2023-04-10T02:58:46.329Z,12.60
2023-04-10T03:01:13.259Z,11.32
2023-04-10T03:03:39.850Z,12.35
2023-04-10T03:06:08.150Z,11.63
2023-04-10T03:08:35.075Z,11.27
2023-04-10T03:11:01.492Z,12.32
2023-04-10T03:13:28.263Z,11.15
2023-04-10T03:15:54.649Z,12.63
2023-04-10T03:18:21.495Z,13.63
2023-04-10T03:20:49.075Z,15.02
2023-04-10T03:23:15.728Z,14.00
2023-04-10T03:25:43.605Z,12.77
2023-04-10T03:28:10.489Z,15.10
2023-04-10T03:30:37.191Z,12.15
2023-04-10T03:33:03.832Z,13.73
2023-04-10T03:35:30.259Z,12.80
2023-04-10T03:37:56.661Z,11.07
2023-04-10T03:40:23.088Z,12.13
2023-04-10T03:42:49.497Z,13.60
2023-04-10T03:45:16.377Z,12.68
2023-04-10T03:47:42.802Z,12.48
2023-04-10T03:50:09.771Z,13.18
2023-04-10T03:52:36.201Z,11.82
2023-04-10T03:55:02.588Z,14.20
2023-04-10T03:57:29.020Z,12.30
2023-04-10T03:59:55.521Z,14.10
2023-04-10T04:02:22.055Z,12.23
2023-04-10T04:04:48.748Z,12.30
2023-04-10T04:07:15.580Z,12.95
2023-04-10T04:09:42.050Z,11.70
2023-04-10T04:12:08.509Z,13.35
2023-04-10T04:14:34.910Z,14.90
2023-04-10T04:17:01.898Z,15.15
2023-04-10T04:19:28.784Z,15.35
2023-04-10T04:21:55.165Z,16.38
2023-04-10T04:24:22.404Z,14.48
2023-04-10T04:26:48.888Z,16.33
2023-04-10T04:29:15.652Z,13.18
2023-04-10T04:31:42.175Z,16.95
2023-04-10T04:34:08.652Z,13.77
2023-04-10T04:36:35.073Z,13.40
2023-04-10T04:39:01.454Z,15.40
2023-04-10T04:41:30.842Z,12.88
2023-04-10T04:43:57.270Z,13.60
2023-04-10T04:46:24.233Z,15.50
2023-04-10T04:48:50.931Z,16.67
2023-04-10T04:51:17.582Z,14.43
2023-04-10T04:53:44.056Z,17.67
2023-04-10T04:56:10.524Z,19.33
2023-04-10T04:58:37.752Z,17.02
2023-04-10T05:01:04.357Z,12.88
2023-04-10T05:03:31.411Z,17.27
2023-04-10T05:05:58.121Z,17.40
2023-04-10T05:08:24.624Z,18.20
2023-04-10T05:10:51.505Z,19.17
2023-04-10T05:13:18.334Z,14.20
2023-04-10T05:15:44.979Z,17.15
2023-04-10T05:18:11.630Z,16.98
2023-04-10T05:20:38.139Z,14.15
2023-04-10T05:23:05.144Z,14.35
2023-04-10T05:25:31.507Z,15.07
2023-04-10T05:27:57.966Z,15.32
2023-04-10T05:30:25.278Z,15.05
2023-04-10T05:32:51.708Z,15.00
2023-04-10T05:35:18.136Z,16.63
2023-04-10T05:37:44.477Z,15.82
2023-04-10T05:40:11.045Z,13.75
2023-04-10T05:42:37.482Z,13.70
2023-04-10T05:45:04.191Z,16.70
2023-04-10T05:47:30.910Z,12.93
2023-04-10T05:49:57.462Z,19.27
2023-04-10T05:52:24.145Z,15.02
2023-04-10T05:54:51.784Z,14.75
2023-04-10T05:57:18.458Z,16.65
2023-04-10T05:59:44.809Z,15.20
2023-04-10T06:02:11.921Z,15.48
2023-04-10T06:04:39.000Z,14.65
2023-04-10T06:07:05.952Z,16.58
2023-04-10T06:09:32.366Z,18.33
2023-04-10T06:11:58.837Z,14.98
2023-04-10T06:14:25.472Z,16.85
2023-04-10T06:16:51.855Z,14.98
2023-04-10T06:19:18.243Z,13.55
2023-04-10T06:21:44.731Z,13.65
2023-04-10T06:24:12.784Z,16.38
2023-04-10T06:26:39.871Z,13.85
2023-04-10T06:29:06.304Z,15.60
2023-04-10T06:31:34.246Z,16.52
2023-04-10T06:34:00.927Z,16.33
2023-04-10T06:36:28.071Z,13.82
2023-04-10T06:38:54.835Z,13.52
2023-04-10T06:41:21.770Z,13.65
2023-04-10T06:43:48.165Z,13.07
2023-04-10T06:46:16.029Z,13.18
2023-04-10T06:48:42.651Z,14.52
2023-04-10T06:51:09.055Z,17.13
2023-04-10T06:53:35.757Z,12.80
2023-04-10T06:56:03.602Z,13.70
2023-04-10T06:58:31.030Z,13.95
2023-04-10T07:00:59.052Z,13.48
2023-04-10T07:03:25.920Z,13.27
2023-04-10T07:05:52.341Z,13.07
2023-04-10T07:08:19.019Z,12.88
2023-04-10T07:10:45.431Z,14.55
2023-04-10T07:13:12.169Z,12.55
2023-04-10T07:15:38.632Z,13.10
2023-04-10T07:18:06.668Z,12.32
2023-04-10T07:20:33.162Z,11.30
2023-04-10T07:22:59.999Z,13.82
2023-04-10T07:25:26.367Z,11.63
2023-04-10T07:27:53.133Z,11.75
2023-04-10T07:30:20.252Z,12.27
2023-04-10T07:32:47.298Z,14.00
2023-04-10T07:35:13.881Z,11.63
2023-04-10T07:37:40.396Z,10.40
2023-04-10T07:40:08.069Z,12.43
2023-04-10T07:42:34.470Z,10.68
2023-04-10T07:45:00.882Z,9.88
2023-04-10T07:47:27.268Z,13.00
2023-04-10T07:49:54.075Z,9.63
2023-04-10T07:52:20.822Z,10.75
2023-04-10T07:54:47.597Z,10.75
2023-04-10T07:57:13.954Z,11.40
2023-04-10T07:59:40.425Z,10.18
2023-04-10T08:02:07.446Z,10.48
2023-04-10T08:04:34.184Z,9.77
2023-04-10T08:07:01.512Z,8.68
2023-04-10T08:09:27.939Z,9.13
2023-04-10T08:11:54.343Z,8.43
2023-04-10T08:14:20.899Z,9.25
2023-04-10T08:16:47.399Z,9.38
2023-04-10T08:19:13.788Z,10.45
2023-04-10T08:21:40.185Z,10.07
2023-04-10T08:24:06.975Z,9.13
2023-04-10T08:26:33.406Z,11.50
2023-04-10T08:29:00.704Z,10.68
2023-04-10T08:31:28.814Z,13.82
2023-04-10T08:33:56.226Z,11.02
2023-04-10T08:36:23.320Z,9.48
2023-04-10T08:38:49.716Z,9.95
2023-04-10T08:41:18.795Z,10.05
2023-04-10T08:43:46.492Z,9.13
2023-04-10T08:46:16.325Z,9.50
2023-04-10T08:48:50.888Z,8.60
2023-04-10T08:51:25.840Z,9.00
2023-04-10T08:53:57.460Z,9.23
2023-04-10T08:56:25.227Z,10.00
2023-04-10T08:58:51.978Z,9.23
2023-04-10T09:01:21.421Z,11.82
2023-04-10T09:03:48.836Z,8.32
2023-04-10T09:06:15.546Z,8.63
2023-04-10T09:08:42.420Z,9.13
2023-04-10T09:11:08.943Z,10.05
2023-04-10T09:13:40.606Z,8.38
2023-04-10T09:16:08.234Z,9.82
2023-04-10T09:18:51.172Z,8.27
2023-04-10T09:21:21.125Z,8.20
2023-04-10T09:23:48.966Z,8.63
2023-04-10T09:26:29.589Z,9.05
2023-04-10T09:28:57.934Z,7.88
2023-04-10T09:31:30.001Z,7.40
2023-04-10T09:34:22.215Z,7.88
2023-04-10T09:36:57.698Z,8.60
2023-04-10T09:39:35.371Z,7.60
2023-04-10T09:42:02.095Z,6.07
2023-04-10T09:44:31.113Z,8.00
2023-04-10T09:46:59.407Z,7.90
2023-04-10T09:49:25.963Z,6.30
2023-04-10T09:51:52.403Z,9.02
2023-04-10T09:54:18.795Z,7.20
2023-04-10T09:56:47.738Z,8.77
2023-04-10T09:59:14.711Z,7.07
2023-04-10T10:01:42.269Z,7.00
2023-04-10T10:04:09.603Z,6.95
2023-04-10T10:06:38.674Z,6.18
2023-04-10T10:09:06.111Z,5.45
2023-04-10T10:11:35.268Z,5.35
2023-04-10T10:14:04.620Z,6.78
2023-04-10T10:16:37.059Z,5.03
2023-04-10T10:19:12.921Z,6.00
2023-04-10T10:21:40.103Z,4.88
2023-04-10T10:24:10.536Z,5.18
2023-04-10T10:26:40.203Z,5.65
2023-04-10T10:29:11.372Z,4.00
2023-04-10T10:31:38.350Z,5.10
2023-04-10T10:34:07.006Z,5.68
2023-04-10T10:36:34.310Z,7.10
2023-04-10T10:39:16.688Z,5.53
2023-04-10T10:42:07.927Z,4.72
2023-04-10T10:44:37.433Z,7.28
2023-04-10T10:47:15.096Z,4.70
2023-04-10T10:49:51.758Z,4.72
2023-04-10T10:52:42.339Z,5.65
2023-04-10T10:55:35.926Z,5.47
2023-04-10T10:58:10.069Z,4.88
2023-04-10T11:00:52.039Z,4.40
2023-04-10T11:03:18.832Z,3.80
2023-04-10T11:05:57.122Z,4.05
2023-04-10T11:08:33.563Z,4.60
2023-04-10T11:11:07.765Z,4.88
2023-04-10T11:13:35.513Z,5.05
2023-04-10T11:16:03.356Z,3.45
2023-04-10T11:18:44.807Z,4.20
2023-04-10T11:21:14.086Z,3.70
2023-04-10T11:24:00.686Z,4.60
2023-04-10T11:26:33.199Z,5.00
2023-04-10T11:29:00.500Z,4.93
2023-04-10T11:31:27.471Z,5.72
2023-04-10T11:33:57.869Z,4.70
2023-04-10T11:36:24.818Z,4.55
2023-04-10T11:38:57.842Z,5.72
2023-04-10T11:41:31.903Z,5.50
2023-04-10T11:44:03.473Z,4.70
2023-04-10T11:46:31.020Z,4.60
2023-04-10T11:49:03.022Z,4.90
2023-04-10T11:51:30.915Z,4.80
2023-04-10T11:54:14.907Z,5.30
2023-04-10T11:56:43.175Z,3.65
2023-04-10T11:59:19.839Z,4.38
2023-04-10T12:01:47.168Z,4.90
2023-04-10T12:04:21.965Z,4.82
2023-04-10T12:06:49.478Z,6.00
2023-04-10T12:09:18.129Z,4.95
2023-04-10T12:11:56.198Z,4.28
2023-04-10T12:14:23.843Z,4.88
2023-04-10T12:16:51.852Z,3.83
2023-04-10T12:19:19.303Z,4.82
2023-04-10T12:21:46.373Z,3.50
2023-04-10T12:24:13.071Z,4.15
2023-04-10T12:26:47.975Z,4.82
2023-04-10T12:29:14.397Z,4.63
2023-04-10T12:31:40.974Z,4.68
2023-04-10T12:34:09.870Z,6.50
2023-04-10T12:36:37.612Z,5.38
2023-04-10T12:39:05.372Z,4.35
2023-04-10T12:41:34.182Z,7.63
2023-04-10T12:44:14.048Z,6.25
2023-04-10T12:46:42.157Z,4.10
2023-04-10T12:49:11.718Z,4.18
2023-04-10T12:51:45.249Z,4.85
2023-04-10T12:54:26.515Z,5.57
2023-04-10T12:56:53.811Z,7.50
2023-04-10T12:59:20.828Z,4.93
2023-04-10T13:01:47.498Z,5.03
2023-04-10T13:04:14.525Z,4.28
2023-04-10T13:06:48.479Z,4.70
2023-04-10T13:09:15.748Z,4.43
2023-04-10T13:11:42.157Z,4.25
2023-04-10T13:14:09.947Z,4.68
2023-04-10T13:16:36.936Z,4.30
2023-04-10T13:19:03.649Z,4.75
2023-04-10T13:21:30.435Z,4.53
2023-04-10T13:23:57.520Z,5.97
2023-04-10T13:26:24.614Z,5.03
2023-04-10T13:28:51.280Z,4.80
2023-04-10T13:31:17.739Z,4.82
2023-04-10T13:33:48.222Z,4.97
2023-04-10T13:36:15.354Z,4.85
2023-04-10T13:38:41.924Z,6.13
2023-04-10T13:41:08.560Z,4.80
2023-04-10T13:43:34.918Z,4.78
2023-04-10T13:46:02.014Z,4.50
2023-04-10T13:48:37.504Z,4.93
2023-04-10T13:51:06.642Z,4.15
2023-04-10T13:53:33.149Z,7.25
2023-04-10T13:55:59.779Z,8.48
2023-04-10T13:58:28.485Z,7.20
2023-04-10T14:00:55.248Z,5.35
2023-04-10T14:03:21.728Z,6.03
2023-04-10T14:05:48.368Z,6.30
2023-04-10T14:08:15.792Z,4.72
2023-04-10T14:10:42.134Z,6.13
2023-04-10T14:13:09.908Z,5.15
2023-04-10T14:15:36.296Z,5.60
2023-04-10T14:18:03.213Z,4.65
2023-04-10T14:20:29.623Z,5.13
2023-04-10T14:22:56.337Z,6.07
2023-04-10T14:25:22.780Z,4.65
2023-04-10T14:27:49.150Z,4.63
2023-04-10T14:30:15.751Z,4.45
2023-04-10T14:32:42.699Z,4.90
2023-04-10T14:35:10.388Z,6.53
2023-04-10T14:37:37.039Z,4.55
2023-04-10T14:40:07.275Z,5.55
2023-04-10T14:42:33.756Z,5.15
2023-04-10T14:45:00.851Z,5.30
2023-04-10T14:47:27.340Z,5.10
2023-04-10T14:49:54.151Z,4.88
2023-04-10T14:52:20.503Z,5.45
2023-04-10T14:54:47.643Z,3.80
2023-04-10T14:57:15.971Z,4.70
2023-04-10T14:59:42.359Z,5.03
2023-04-10T15:02:09.121Z,4.97
2023-04-10T15:04:35.996Z,4.60
2023-04-10T15:07:02.965Z,4.68
2023-04-10T15:09:29.347Z,4.65
2023-04-10T15:11:56.806Z,4.32
2023-04-10T15:14:23.262Z,4.25
2023-04-10T15:16:50.621Z,3.95
2023-04-10T15:19:18.386Z,4.45
2023-04-10T15:21:45.071Z,4.28
2023-04-10T15:24:11.748Z,4.50
2023-04-10T15:26:43.603Z,4.60
2023-04-10T15:29:10.301Z,4.10
2023-04-10T15:31:37.135Z,4.00
2023-04-10T15:34:03.777Z,3.28
2023-04-10T15:36:32.132Z,4.28
2023-04-10T15:38:59.776Z,3.90
2023-04-10T15:41:27.673Z,3.72
2023-04-10T15:43:54.501Z,3.08
2023-04-10T15:46:21.865Z,3.95
2023-04-10T15:48:48.319Z,3.30
2023-04-10T15:51:14.715Z,3.28
2023-04-10T15:53:41.091Z,3.40
2023-04-10T15:56:08.488Z,3.20
2023-04-10T15:58:34.929Z,4.57
2023-04-10T16:01:02.035Z,3.50
2023-04-10T16:03:30.459Z,3.45
2023-04-10T16:05:58.141Z,3.95
2023-04-10T16:08:26.508Z,3.35
2023-04-10T16:10:53.766Z,4.20
2023-04-10T16:13:20.236Z,3.72
2023-04-10T16:15:47.096Z,4.90
2023-04-10T16:18:13.524Z,3.97
2023-04-10T16:20:43.262Z,3.95
2023-04-10T16:23:10.211Z,3.60
2023-04-10T16:25:36.676Z,4.70
2023-04-10T16:28:06.510Z,16.52
2023-04-10T16:30:33.194Z,44.33
2023-04-10T16:33:00.275Z,8.93
2023-04-10T16:35:26.785Z,11.63
2023-04-10T16:37:53.957Z,14.70
2023-04-10T16:40:21.872Z,10.93
2023-04-10T16:42:48.250Z,7.07
2023-04-10T16:45:15.165Z,5.45
2023-04-10T16:47:44.317Z,3.88
2023-04-10T16:50:11.052Z,4.13
2023-04-10T16:52:37.563Z,3.92
2023-04-10T16:55:04.442Z,4.40
2023-04-10T16:57:31.323Z,4.97
2023-04-10T17:00:00.556Z,5.07
2023-04-10T17:02:28.728Z,4.22
2023-04-10T17:04:55.913Z,4.70
2023-04-10T17:07:23.109Z,4.38
2023-04-10T17:09:49.765Z,5.93
2023-04-10T17:12:16.204Z,5.40
2023-04-10T17:14:42.636Z,6.38
2023-04-10T17:17:09.094Z,2.92
2023-04-10T17:19:35.656Z,4.55
2023-04-10T17:22:02.083Z,4.30
2023-04-10T17:24:31.253Z,4.88
2023-04-10T17:26:57.951Z,3.65
2023-04-10T17:29:25.591Z,4.57
2023-04-10T17:31:52.090Z,6.55
2023-04-10T17:34:18.879Z,5.60
2023-04-10T17:36:45.664Z,2.92
2023-04-10T17:39:12.069Z,3.47
2023-04-10T17:41:38.424Z,3.83
2023-04-10T17:44:05.672Z,3.95
2023-04-10T17:46:32.054Z,4.13
2023-04-10T17:49:01.266Z,4.57
2023-04-10T17:51:28.205Z,5.10
2023-04-10T17:53:55.017Z,3.47
2023-04-10T17:56:22.439Z,3.97
2023-04-10T17:58:48.923Z,5.30
2023-04-10T18:01:23.361Z,4.45
2023-04-10T18:03:50.278Z,5.20
2023-04-10T18:06:16.921Z,3.60
2023-04-10T18:08:43.406Z,4.43
2023-04-10T18:11:09.831Z,4.28
2023-04-10T18:13:36.507Z,4.53
2023-04-10T18:16:02.981Z,6.43
2023-04-10T18:18:29.703Z,3.97
2023-04-10T18:20:56.088Z,5.50
2023-04-10T18:23:24.103Z,3.65
2023-04-10T18:25:54.583Z,4.53
2023-04-10T18:28:21.839Z,3.97
2023-04-10T18:30:48.557Z,4.35
2023-04-10T18:33:20.409Z,3.25
2023-04-10T18:35:47.461Z,4.05
2023-04-10T18:38:13.951Z,4.30
2023-04-10T18:40:40.275Z,4.72
2023-04-10T18:43:06.668Z,2.95
2023-04-10T18:45:34.263Z,5.60
2023-04-10T18:48:01.208Z,6.03
2023-04-10T18:50:27.593Z,3.50
2023-04-10T18:52:54.572Z,4.35
2023-04-10T18:55:21.683Z,5.70
2023-04-10T18:57:48.264Z,4.35
2023-04-10T19:00:14.934Z,6.78
2023-04-10T19:02:41.707Z,4.72
2023-04-10T19:05:09.267Z,4.00
2023-04-10T19:07:36.027Z,3.75
2023-04-10T19:10:02.410Z,4.45
2023-04-10T19:12:29.061Z,5.13
2023-04-10T19:14:55.399Z,4.15
2023-04-10T19:17:24.689Z,6.57
2023-04-10T19:19:53.264Z,5.10
2023-04-10T19:22:19.651Z,3.80
2023-04-10T19:24:46.036Z,4.40
2023-04-10T19:27:12.391Z,3.78
2023-04-10T19:29:38.757Z,5.00
2023-04-10T19:32:05.468Z,5.40
2023-04-10T19:34:32.254Z,4.78
2023-04-10T19:36:58.782Z,4.70
2023-04-10T19:39:25.627Z,4.82
2023-04-10T19:41:52.043Z,5.00
2023-04-10T19:44:18.763Z,3.50
2023-04-10T19:46:45.233Z,5.00
2023-04-10T19:49:12.228Z,4.30
2023-04-10T19:51:38.661Z,4.22
2023-04-10T19:54:05.267Z,4.53
2023-04-10T19:56:32.200Z,4.22
2023-04-10T19:58:58.865Z,4.18
2023-04-10T20:01:25.619Z,4.13
2023-04-10T20:03:52.154Z,4.75
2023-04-10T20:06:18.729Z,5.80
2023-04-10T20:08:45.341Z,5.18
2023-04-10T20:11:11.692Z,5.80
2023-04-10T20:13:39.960Z,5.03
2023-04-10T20:16:07.417Z,5.82
2023-04-10T20:18:34.107Z,4.80
2023-04-10T20:21:00.488Z,4.55
2023-04-10T20:23:26.926Z,4.47
2023-04-10T20:25:53.351Z,4.85
2023-04-10T20:28:20.153Z,5.85
2023-04-10T20:30:46.579Z,5.35
2023-04-10T20:33:13.398Z,5.55
2023-04-10T20:35:39.837Z,4.00
2023-04-10T20:38:06.440Z,7.15
2023-04-10T20:40:32.851Z,4.60
2023-04-10T20:42:59.259Z,5.82
2023-04-10T20:45:25.621Z,4.90
2023-04-10T20:47:52.088Z,5.78
2023-04-10T20:50:18.714Z,3.72
2023-04-10T20:52:45.547Z,6.90
2023-04-10T20:55:12.131Z,4.93
2023-04-10T20:57:38.475Z,5.57
2023-04-10T21:00:05.480Z,4.60
2023-04-10T21:02:32.043Z,4.32
2023-04-10T21:04:59.778Z,3.67
2023-04-10T21:07:26.136Z,7.25
2023-04-10T21:09:52.482Z,6.22
2023-04-10T21:12:19.084Z,3.83
2023-04-10T21:14:45.838Z,4.30
2023-04-10T21:17:12.589Z,6.07
2023-04-10T21:19:38.997Z,4.78
2023-04-10T21:22:05.484Z,5.40
2023-04-10T21:24:31.905Z,5.72
2023-04-10T21:26:58.512Z,3.22
2023-04-10T21:29:24.862Z,2.88
2023-04-10T21:31:51.786Z,3.53
2023-04-10T21:34:18.595Z,3.28
2023-04-10T21:36:45.210Z,3.20
2023-04-10T21:39:11.926Z,1.98
2023-04-10T21:41:39.582Z,5.90
2023-04-10T21:44:06.508Z,2.53
2023-04-10T21:46:33.653Z,2.05
2023-04-10T21:49:00.643Z,3.00
2023-04-10T21:51:27.567Z,3.38
2023-04-10T21:53:54.495Z,5.05
2023-04-10T21:56:20.972Z,2.10
2023-04-10T21:58:47.654Z,1.88
2023-04-10T22:01:14.204Z,2.30
2023-04-10T22:03:41.655Z,3.17
2023-04-10T22:06:08.900Z,3.85
2023-04-10T22:08:38.007Z,4.00
2023-04-10T22:11:06.091Z,3.63
2023-04-10T22:13:32.688Z,2.65
2023-04-10T22:16:01.739Z,2.55
2023-04-10T22:18:28.257Z,2.90
2023-04-10T22:20:55.379Z,2.45
2023-04-10T22:23:22.103Z,1.25
2023-04-10T22:25:48.464Z,2.10
2023-04-10T22:28:15.124Z,3.65
2023-04-10T22:30:41.678Z,1.65
2023-04-10T22:33:08.177Z,3.47
2023-04-10T22:35:34.655Z,4.72
2023-04-10T22:38:03.561Z,7.43
2023-04-10T22:40:31.227Z,3.08
2023-04-10T22:42:57.573Z,2.42
2023-04-10T22:45:23.961Z,2.15
2023-04-10T22:47:50.374Z,1.40
2023-04-10T22:50:16.883Z,1.15
2023-04-10T22:52:43.562Z,3.70
2023-04-10T22:55:10.073Z,0.77
2023-04-10T22:57:36.449Z,2.72
2023-04-10T23:00:03.206Z,1.90
2023-04-10T23:02:31.612Z,4.65
2023-04-10T23:04:58.518Z,3.88
2023-04-10T23:07:25.821Z,3.15
2023-04-10T23:09:52.179Z,3.90
2023-04-10T23:12:18.566Z,7.60
2023-04-10T23:14:45.255Z,3.80
2023-04-10T23:17:11.617Z,2.60
2023-04-10T23:19:38.513Z,3.45
2023-04-10T23:22:05.039Z,2.78
2023-04-10T23:24:31.483Z,2.80
2023-04-10T23:26:57.824Z,4.90
2023-04-10T23:29:24.440Z,3.95
2023-04-10T23:31:51.000Z,4.35
2023-04-10T23:34:18.705Z,2.20
2023-04-10T23:36:45.217Z,3.95
2023-04-10T23:39:12.466Z,1.98
2023-04-10T23:41:39.218Z,2.97
2023-04-10T23:44:05.680Z,3.03
2023-04-10T23:46:32.109Z,4.15
2023-04-10T23:48:58.787Z,2.92
2023-04-10T23:51:26.636Z,0.90
2023-04-10T23:53:53.503Z,3.63
2023-04-10T23:56:20.765Z,2.85
2023-04-10T23:58:47.552Z,2.38
